sensor_id;sensor_type;location;lat;lon;timestamp;temperature;humidity
10300;DHT22;5195;48.562;9.192;2023-06-22T00:02:21;25.00;54.80
10300;DHT22;5195;48.562;9.192;2023-06-22T00:04:58;25.40;53.90
10300;DHT22;5195;48.562;9.192;2023-06-22T00:07:33;25.40;53.90
10300;DHT22;5195;48.562;9.192;2023-06-22T00:10:09;25.60;53.60
10300;DHT22;5195;48.562;9.192;2023-06-22T00:12:45;25.60;53.30
10300;DHT22;5195;48.562;9.192;2023-06-22T00:15:20;25.40;53.70
10300;DHT22;5195;48.562;9.192;2023-06-22T00:17:56;25.50;53.90
10300;DHT22;5195;48.562;9.192;2023-06-22T00:20:32;25.40;53.80
10300;DHT22;5195;48.562;9.192;2023-06-22T00:23:08;25.60;53.50
10300;DHT22;5195;48.562;9.192;2023-06-22T00:25:43;25.40;53.70
10300;DHT22;5195;48.562;9.192;2023-06-22T00:28:19;25.30;53.90
10300;DHT22;5195;48.562;9.192;2023-06-22T00:30:54;25.50;53.70
10300;DHT22;5195;48.562;9.192;2023-06-22T00:33:30;25.20;53.90
10300;DHT22;5195;48.562;9.192;2023-06-22T00:36:05;24.90;54.50
10300;DHT22;5195;48.562;9.192;2023-06-22T00:38:41;24.60;55.00
10300;DHT22;5195;48.562;9.192;2023-06-22T00:41:17;24.70;55.20
10300;DHT22;5195;48.562;9.192;2023-06-22T00:43:52;24.70;55.10
10300;DHT22;5195;48.562;9.192;2023-06-22T00:46:28;24.80;55.00
10300;DHT22;5195;48.562;9.192;2023-06-22T00:49:03;24.70;55.00
10300;DHT22;5195;48.562;9.192;2023-06-22T00:51:39;24.40;55.30
10300;DHT22;5195;48.562;9.192;2023-06-22T00:54:15;24.40;56.00
10300;DHT22;5195;48.562;9.192;2023-06-22T00:56:51;24.40;56.00
10300;DHT22;5195;48.562;9.192;2023-06-22T00:59:26;24.40;55.80
10300;DHT22;5195;48.562;9.192;2023-06-22T01:02:02;24.60;55.70
10300;DHT22;5195;48.562;9.192;2023-06-22T01:04:38;24.90;55.20
10300;DHT22;5195;48.562;9.192;2023-06-22T01:13:30;24.80;54.70
10300;DHT22;5195;48.562;9.192;2023-06-22T01:16:05;24.80;55.00
10300;DHT22;5195;48.562;9.192;2023-06-22T01:18:40;25.10;54.60
10300;DHT22;5195;48.562;9.192;2023-06-22T01:21:16;25.10;54.60
10300;DHT22;5195;48.562;9.192;2023-06-22T01:29:58;24.10;56.00
10300;DHT22;5195;48.562;9.192;2023-06-22T01:32:34;23.80;56.50
10300;DHT22;5195;48.562;9.192;2023-06-22T01:35:09;23.60;56.80
10300;DHT22;5195;48.562;9.192;2023-06-22T01:37:44;23.80;57.20
10300;DHT22;5195;48.562;9.192;2023-06-22T01:40:20;24.20;56.50
10300;DHT22;5195;48.562;9.192;2023-06-22T01:42:56;24.10;56.40
10300;DHT22;5195;48.562;9.192;2023-06-22T01:45:31;23.90;56.80
10300;DHT22;5195;48.562;9.192;2023-06-22T01:48:07;23.70;57.20
10300;DHT22;5195;48.562;9.192;2023-06-22T01:50:42;23.90;57.10
10300;DHT22;5195;48.562;9.192;2023-06-22T01:53:18;24.30;56.40
10300;DHT22;5195;48.562;9.192;2023-06-22T01:55:53;24.20;56.30
10300;DHT22;5195;48.562;9.192;2023-06-22T01:58:29;24.30;56.20
10300;DHT22;5195;48.562;9.192;2023-06-22T02:01:12;24.20;56.30
10300;DHT22;5195;48.562;9.192;2023-06-22T02:03:48;23.90;56.60
10300;DHT22;5195;48.562;9.192;2023-06-22T02:06:34;24.00;56.60
10300;DHT22;5195;48.562;9.192;2023-06-22T02:09:12;24.30;56.00
10300;DHT22;5195;48.562;9.192;2023-06-22T02:11:44;24.60;55.50
10300;DHT22;5195;48.562;9.192;2023-06-22T02:14:19;24.80;55.20
10300;DHT22;5195;48.562;9.192;2023-06-22T02:16:54;24.90;54.70
10300;DHT22;5195;48.562;9.192;2023-06-22T02:19:30;24.70;55.10
10300;DHT22;5195;48.562;9.192;2023-06-22T02:22:05;24.70;55.30
10300;DHT22;5195;48.562;9.192;2023-06-22T02:24:42;24.50;55.40
10300;DHT22;5195;48.562;9.192;2023-06-22T02:27:17;24.50;55.40
10300;DHT22;5195;48.562;9.192;2023-06-22T02:29:53;24.70;55.20
10300;DHT22;5195;48.562;9.192;2023-06-22T02:32:29;24.80;54.80
10300;DHT22;5195;48.562;9.192;2023-06-22T02:35:04;24.50;55.70
10300;DHT22;5195;48.562;9.192;2023-06-22T02:37:40;24.20;55.60
10300;DHT22;5195;48.562;9.192;2023-06-22T02:40:17;24.40;55.30
10300;DHT22;5195;48.562;9.192;2023-06-22T02:42:53;24.40;56.20
10300;DHT22;5195;48.562;9.192;2023-06-22T02:45:29;24.60;55.20
10300;DHT22;5195;48.562;9.192;2023-06-22T02:48:04;24.70;54.90
10300;DHT22;5195;48.562;9.192;2023-06-22T02:50:40;24.80;54.70
10300;DHT22;5195;48.562;9.192;2023-06-22T02:53:15;24.80;55.40
10300;DHT22;5195;48.562;9.192;2023-06-22T02:55:51;24.90;54.50
10300;DHT22;5195;48.562;9.192;2023-06-22T02:58:27;24.90;54.50
10300;DHT22;5195;48.562;9.192;2023-06-22T03:01:04;24.00;55.60
10300;DHT22;5195;48.562;9.192;2023-06-22T03:03:38;24.00;55.50
10300;DHT22;5195;48.562;9.192;2023-06-22T03:06:14;23.60;56.20
10300;DHT22;5195;48.562;9.192;2023-06-22T03:08:50;23.40;56.80
10300;DHT22;5195;48.562;9.192;2023-06-22T03:11:25;23.50;57.50
10300;DHT22;5195;48.562;9.192;2023-06-22T03:14:01;23.50;57.40
10300;DHT22;5195;48.562;9.192;2023-06-22T03:16:37;24.00;56.70
10300;DHT22;5195;48.562;9.192;2023-06-22T03:19:13;24.00;56.70
10300;DHT22;5195;48.562;9.192;2023-06-22T03:21:48;23.80;56.70
10300;DHT22;5195;48.562;9.192;2023-06-22T03:24:25;23.20;58.00
10300;DHT22;5195;48.562;9.192;2023-06-22T03:27:02;23.20;57.60
10300;DHT22;5195;48.562;9.192;2023-06-22T03:29:39;23.40;58.10
10300;DHT22;5195;48.562;9.192;2023-06-22T03:32:14;23.70;57.60
10300;DHT22;5195;48.562;9.192;2023-06-22T03:34:51;23.30;58.00
10300;DHT22;5195;48.562;9.192;2023-06-22T03:37:26;23.30;58.00
10300;DHT22;5195;48.562;9.192;2023-06-22T03:40:02;23.10;58.40
10300;DHT22;5195;48.562;9.192;2023-06-22T03:42:37;22.90;58.70
10300;DHT22;5195;48.562;9.192;2023-06-22T03:45:13;23.20;58.80
10300;DHT22;5195;48.562;9.192;2023-06-22T03:47:49;23.20;58.50
10300;DHT22;5195;48.562;9.192;2023-06-22T03:50:24;23.10;58.70
10300;DHT22;5195;48.562;9.192;2023-06-22T03:53:00;23.00;58.90
10300;DHT22;5195;48.562;9.192;2023-06-22T03:55:35;23.30;58.70
10300;DHT22;5195;48.562;9.192;2023-06-22T03:58:11;23.30;58.40
10300;DHT22;5195;48.562;9.192;2023-06-22T04:00:47;23.20;58.70
10300;DHT22;5195;48.562;9.192;2023-06-22T04:03:23;23.00;58.80
10300;DHT22;5195;48.562;9.192;2023-06-22T04:05:59;23.20;58.80
10300;DHT22;5195;48.562;9.192;2023-06-22T04:08:35;23.30;58.60
10300;DHT22;5195;48.562;9.192;2023-06-22T04:11:10;23.50;58.20
10300;DHT22;5195;48.562;9.192;2023-06-22T04:13:46;23.50;58.20
10300;DHT22;5195;48.562;9.192;2023-06-22T04:16:22;23.60;57.80
10300;DHT22;5195;48.562;9.192;2023-06-22T04:18:58;23.80;57.60
10300;DHT22;5195;48.562;9.192;2023-06-22T04:21:35;23.70;57.50
10300;DHT22;5195;48.562;9.192;2023-06-22T04:24:11;23.70;57.50
10300;DHT22;5195;48.562;9.192;2023-06-22T04:26:46;23.50;57.80
10300;DHT22;5195;48.562;9.192;2023-06-22T04:29:22;23.30;58.20
10300;DHT22;5195;48.562;9.192;2023-06-22T04:32:01;23.50;57.90
10300;DHT22;5195;48.562;9.192;2023-06-22T04:34:41;23.50;58.10
10300;DHT22;5195;48.562;9.192;2023-06-22T04:37:16;23.50;58.10
10300;DHT22;5195;48.562;9.192;2023-06-22T04:39:53;23.60;58.00
10300;DHT22;5195;48.562;9.192;2023-06-22T04:42:28;23.60;57.90
10300;DHT22;5195;48.562;9.192;2023-06-22T04:45:04;24.10;57.00
10300;DHT22;5195;48.562;9.192;2023-06-22T04:47:40;24.50;56.40
10300;DHT22;5195;48.562;9.192;2023-06-22T04:50:15;24.40;56.30
10300;DHT22;5195;48.562;9.192;2023-06-22T04:52:52;24.00;57.10
10300;DHT22;5195;48.562;9.192;2023-06-22T04:55:27;23.90;57.00
10300;DHT22;5195;48.562;9.192;2023-06-22T04:58:03;24.20;56.70
10300;DHT22;5195;48.562;9.192;2023-06-22T05:00:38;24.20;56.60
10300;DHT22;5195;48.562;9.192;2023-06-22T05:03:14;24.00;56.70
10300;DHT22;5195;48.562;9.192;2023-06-22T05:05:49;23.90;56.90
10300;DHT22;5195;48.562;9.192;2023-06-22T05:08:25;24.20;56.40
10300;DHT22;5195;48.562;9.192;2023-06-22T05:11:01;24.50;55.70
10300;DHT22;5195;48.562;9.192;2023-06-22T05:13:36;24.80;55.30
10300;DHT22;5195;48.562;9.192;2023-06-22T05:16:12;25.10;54.60
10300;DHT22;5195;48.562;9.192;2023-06-22T05:18:47;25.30;54.10
10300;DHT22;5195;48.562;9.192;2023-06-22T05:21:26;25.60;53.20
10300;DHT22;5195;48.562;9.192;2023-06-22T05:24:00;25.60;53.20
10300;DHT22;5195;48.562;9.192;2023-06-22T05:26:36;25.80;52.90
10300;DHT22;5195;48.562;9.192;2023-06-22T05:29:12;25.90;52.60
10300;DHT22;5195;48.562;9.192;2023-06-22T05:31:47;25.60;53.00
10300;DHT22;5195;48.562;9.192;2023-06-22T05:34:23;25.20;53.70
10300;DHT22;5195;48.562;9.192;2023-06-22T05:36:58;25.00;54.40
10300;DHT22;5195;48.562;9.192;2023-06-22T05:39:34;24.80;54.80
10300;DHT22;5195;48.562;9.192;2023-06-22T05:42:11;24.80;55.10
10300;DHT22;5195;48.562;9.192;2023-06-22T05:44:46;25.10;54.70
10300;DHT22;5195;48.562;9.192;2023-06-22T05:47:22;25.60;53.40
10300;DHT22;5195;48.562;9.192;2023-06-22T05:49:57;26.00;52.80
10300;DHT22;5195;48.562;9.192;2023-06-22T05:52:34;26.00;52.90
10300;DHT22;5195;48.562;9.192;2023-06-22T05:55:10;25.90;53.20
10300;DHT22;5195;48.562;9.192;2023-06-22T05:57:45;26.10;52.10
10300;DHT22;5195;48.562;9.192;2023-06-22T06:00:22;26.50;51.20
10300;DHT22;5195;48.562;9.192;2023-06-22T06:02:57;26.50;51.20
10300;DHT22;5195;48.562;9.192;2023-06-22T06:05:34;27.50;49.20
10300;DHT22;5195;48.562;9.192;2023-06-22T06:08:09;27.50;49.20
10300;DHT22;5195;48.562;9.192;2023-06-22T06:10:45;27.90;48.20
10300;DHT22;5195;48.562;9.192;2023-06-22T06:13:21;28.60;47.60
10300;DHT22;5195;48.562;9.192;2023-06-22T06:15:56;29.30;46.00
10300;DHT22;5195;48.562;9.192;2023-06-22T06:18:32;29.60;46.50
10300;DHT22;5195;48.562;9.192;2023-06-22T06:21:09;29.70;46.80
10300;DHT22;5195;48.562;9.192;2023-06-22T06:23:44;30.20;43.80
10300;DHT22;5195;48.562;9.192;2023-06-22T06:26:20;30.90;42.70
10300;DHT22;5195;48.562;9.192;2023-06-22T06:28:56;31.50;41.90
10300;DHT22;5195;48.562;9.192;2023-06-22T06:31:31;31.60;42.60
10300;DHT22;5195;48.562;9.192;2023-06-22T06:34:07;31.60;43.40
10300;DHT22;5195;48.562;9.192;2023-06-22T06:36:42;31.60;43.70
10300;DHT22;5195;48.562;9.192;2023-06-22T06:39:18;32.00;41.10
10300;DHT22;5195;48.562;9.192;2023-06-22T06:41:54;32.30;42.10
10300;DHT22;5195;48.562;9.192;2023-06-22T06:44:30;32.20;42.00
10300;DHT22;5195;48.562;9.192;2023-06-22T06:47:05;32.30;42.20
10300;DHT22;5195;48.562;9.192;2023-06-22T06:49:41;32.40;42.20
10300;DHT22;5195;48.562;9.192;2023-06-22T06:52:16;32.90;39.20
10300;DHT22;5195;48.562;9.192;2023-06-22T06:54:52;33.10;40.00
10300;DHT22;5195;48.562;9.192;2023-06-22T06:57:28;33.60;38.40
10300;DHT22;5195;48.562;9.192;2023-06-22T07:00:06;33.70;39.30
10300;DHT22;5195;48.562;9.192;2023-06-22T07:02:41;34.00;37.80
10300;DHT22;5195;48.562;9.192;2023-06-22T07:05:16;34.00;38.70
10300;DHT22;5195;48.562;9.192;2023-06-22T07:07:52;33.80;39.30
10300;DHT22;5195;48.562;9.192;2023-06-22T07:10:28;34.10;38.00
10300;DHT22;5195;48.562;9.192;2023-06-22T07:13:03;34.50;37.50
10300;DHT22;5195;48.562;9.192;2023-06-22T07:15:38;34.30;37.80
10300;DHT22;5195;48.562;9.192;2023-06-22T07:18:14;34.40;37.10
10300;DHT22;5195;48.562;9.192;2023-06-22T07:20:51;34.30;37.80
10300;DHT22;5195;48.562;9.192;2023-06-22T07:23:27;34.30;37.60
10300;DHT22;5195;48.562;9.192;2023-06-22T07:26:03;34.30;37.60
10300;DHT22;5195;48.562;9.192;2023-06-22T07:28:39;34.30;36.60
10300;DHT22;5195;48.562;9.192;2023-06-22T07:31:14;34.20;37.30
10300;DHT22;5195;48.562;9.192;2023-06-22T07:33:49;34.20;36.30
10300;DHT22;5195;48.562;9.192;2023-06-22T07:36:27;34.20;36.10
10300;DHT22;5195;48.562;9.192;2023-06-22T07:39:03;34.20;36.10
10300;DHT22;5195;48.562;9.192;2023-06-22T07:41:39;33.90;36.70
10300;DHT22;5195;48.562;9.192;2023-06-22T07:44:14;33.50;37.30
10300;DHT22;5195;48.562;9.192;2023-06-22T07:46:50;33.50;37.30
10300;DHT22;5195;48.562;9.192;2023-06-22T07:49:27;33.40;37.50
10300;DHT22;5195;48.562;9.192;2023-06-22T07:52:03;33.10;38.00
10300;DHT22;5195;48.562;9.192;2023-06-22T07:54:38;33.30;37.90
10300;DHT22;5195;48.562;9.192;2023-06-22T07:57:14;33.50;37.80
10300;DHT22;5195;48.562;9.192;2023-06-22T07:59:50;33.70;37.70
10300;DHT22;5195;48.562;9.192;2023-06-22T08:02:26;33.60;37.60
10300;DHT22;5195;48.562;9.192;2023-06-22T08:05:01;33.80;36.70
10300;DHT22;5195;48.562;9.192;2023-06-22T08:07:38;33.90;37.30
10300;DHT22;5195;48.562;9.192;2023-06-22T08:10:15;34.10;37.20
10300;DHT22;5195;48.562;9.192;2023-06-22T08:12:49;33.90;37.40
10300;DHT22;5195;48.562;9.192;2023-06-22T08:15:26;33.70;37.20
10300;DHT22;5195;48.562;9.192;2023-06-22T08:18:01;33.70;37.20
10300;DHT22;5195;48.562;9.192;2023-06-22T08:20:37;33.90;37.60
10300;DHT22;5195;48.562;9.192;2023-06-22T08:23:12;34.20;37.80
10300;DHT22;5195;48.562;9.192;2023-06-22T08:25:48;34.20;37.90
10300;DHT22;5195;48.562;9.192;2023-06-22T08:28:24;34.00;38.20
10300;DHT22;5195;48.562;9.192;2023-06-22T08:31:01;33.90;39.00
10300;DHT22;5195;48.562;9.192;2023-06-22T08:33:35;33.80;38.80
10300;DHT22;5195;48.562;9.192;2023-06-22T08:36:11;34.20;37.80
10300;DHT22;5195;48.562;9.192;2023-06-22T08:38:47;34.70;38.40
10300;DHT22;5195;48.562;9.192;2023-06-22T08:41:22;34.70;37.80
10300;DHT22;5195;48.562;9.192;2023-06-22T08:43:58;34.90;37.60
10300;DHT22;5195;48.562;9.192;2023-06-22T08:46:33;35.10;37.20
10300;DHT22;5195;48.562;9.192;2023-06-22T08:49:10;35.40;35.70
10300;DHT22;5195;48.562;9.192;2023-06-22T08:51:45;35.50;35.80
10300;DHT22;5195;48.562;9.192;2023-06-22T08:54:21;35.20;36.30
10300;DHT22;5195;48.562;9.192;2023-06-22T08:56:56;35.00;36.80
10300;DHT22;5195;48.562;9.192;2023-06-22T08:59:32;35.00;36.50
10300;DHT22;5195;48.562;9.192;2023-06-22T09:02:08;35.10;36.60
10300;DHT22;5195;48.562;9.192;2023-06-22T09:04:43;34.90;36.40
10300;DHT22;5195;48.562;9.192;2023-06-22T09:07:19;34.70;36.70
10300;DHT22;5195;48.562;9.192;2023-06-22T09:09:56;35.00;36.80
10300;DHT22;5195;48.562;9.192;2023-06-22T09:12:31;35.10;37.40
10300;DHT22;5195;48.562;9.192;2023-06-22T09:15:08;34.90;36.90
10300;DHT22;5195;48.562;9.192;2023-06-22T09:17:44;34.80;37.10
10300;DHT22;5195;48.562;9.192;2023-06-22T09:20:20;35.10;37.00
10300;DHT22;5195;48.562;9.192;2023-06-22T09:22:56;35.10;36.90
10300;DHT22;5195;48.562;9.192;2023-06-22T09:25:31;35.20;36.80
10300;DHT22;5195;48.562;9.192;2023-06-22T09:28:07;35.10;37.10
10300;DHT22;5195;48.562;9.192;2023-06-22T09:30:43;35.00;37.10
10300;DHT22;5195;48.562;9.192;2023-06-22T09:33:18;34.90;37.20
10300;DHT22;5195;48.562;9.192;2023-06-22T09:35:53;35.20;37.10
10300;DHT22;5195;48.562;9.192;2023-06-22T09:38:29;35.50;36.30
10300;DHT22;5195;48.562;9.192;2023-06-22T09:41:05;35.90;36.10
10300;DHT22;5195;48.562;9.192;2023-06-22T09:43:40;35.90;36.10
10300;DHT22;5195;48.562;9.192;2023-06-22T09:46:17;36.00;36.10
10300;DHT22;5195;48.562;9.192;2023-06-22T09:48:52;35.90;36.00
10300;DHT22;5195;48.562;9.192;2023-06-22T09:51:29;36.10;36.20
10300;DHT22;5195;48.562;9.192;2023-06-22T09:54:05;35.80;35.70
10300;DHT22;5195;48.562;9.192;2023-06-22T09:56:41;35.80;35.70
10300;DHT22;5195;48.562;9.192;2023-06-22T09:59:16;35.90;35.40
10300;DHT22;5195;48.562;9.192;2023-06-22T10:01:52;35.80;35.50
10300;DHT22;5195;48.562;9.192;2023-06-22T10:04:27;35.80;34.70
10300;DHT22;5195;48.562;9.192;2023-06-22T10:07:03;35.50;35.00
10300;DHT22;5195;48.562;9.192;2023-06-22T10:09:39;35.20;35.60
10300;DHT22;5195;48.562;9.192;2023-06-22T10:12:14;35.00;36.10
10300;DHT22;5195;48.562;9.192;2023-06-22T10:14:50;35.20;36.70
10300;DHT22;5195;48.562;9.192;2023-06-22T10:17:25;35.30;36.20
10300;DHT22;5195;48.562;9.192;2023-06-22T10:20:02;35.20;37.20
10300;DHT22;5195;48.562;9.192;2023-06-22T10:22:38;35.20;36.40
10300;DHT22;5195;48.562;9.192;2023-06-22T10:25:14;35.80;36.10
10300;DHT22;5195;48.562;9.192;2023-06-22T10:27:50;35.80;35.40
10300;DHT22;5195;48.562;9.192;2023-06-22T10:30:26;36.20;34.40
10300;DHT22;5195;48.562;9.192;2023-06-22T10:33:01;36.20;34.40
10300;DHT22;5195;48.562;9.192;2023-06-22T10:35:37;36.20;35.00
10300;DHT22;5195;48.562;9.192;2023-06-22T10:38:15;36.10;34.90
10300;DHT22;5195;48.562;9.192;2023-06-22T10:40:51;36.30;33.70
10300;DHT22;5195;48.562;9.192;2023-06-22T10:43:27;36.20;33.80
10300;DHT22;5195;48.562;9.192;2023-06-22T10:46:03;36.30;34.60
10300;DHT22;5195;48.562;9.192;2023-06-22T10:48:40;36.60;34.60
10300;DHT22;5195;48.562;9.192;2023-06-22T10:51:18;36.50;34.50
10300;DHT22;5195;48.562;9.192;2023-06-22T10:53:54;36.60;34.30
10300;DHT22;5195;48.562;9.192;2023-06-22T10:56:29;36.40;34.50
10300;DHT22;5195;48.562;9.192;2023-06-22T10:59:05;36.50;34.10
10300;DHT22;5195;48.562;9.192;2023-06-22T11:01:40;36.40;34.40
10300;DHT22;5195;48.562;9.192;2023-06-22T11:04:16;36.20;34.60
10300;DHT22;5195;48.562;9.192;2023-06-22T11:06:52;36.40;34.30
10300;DHT22;5195;48.562;9.192;2023-06-22T11:09:27;36.70;33.60
10300;DHT22;5195;48.562;9.192;2023-06-22T11:12:03;37.00;33.40
10300;DHT22;5195;48.562;9.192;2023-06-22T11:14:39;37.30;32.10
10300;DHT22;5195;48.562;9.192;2023-06-22T11:17:14;37.40;32.00
10300;DHT22;5195;48.562;9.192;2023-06-22T11:19:50;37.50;33.50
10300;DHT22;5195;48.562;9.192;2023-06-22T11:22:27;37.40;33.10
10300;DHT22;5195;48.562;9.192;2023-06-22T11:25:03;37.30;33.20
10300;DHT22;5195;48.562;9.192;2023-06-22T11:27:38;37.20;33.20
10300;DHT22;5195;48.562;9.192;2023-06-22T11:30:14;36.90;34.30
10300;DHT22;5195;48.562;9.192;2023-06-22T11:32:49;37.00;33.10
10300;DHT22;5195;48.562;9.192;2023-06-22T11:35:25;37.20;32.80
10300;DHT22;5195;48.562;9.192;2023-06-22T11:38:01;37.40;31.80
10300;DHT22;5195;48.562;9.192;2023-06-22T11:40:36;37.10;32.30
10300;DHT22;5195;48.562;9.192;2023-06-22T11:43:13;36.60;33.30
10300;DHT22;5195;48.562;9.192;2023-06-22T11:45:48;36.60;33.10
10300;DHT22;5195;48.562;9.192;2023-06-22T11:48:24;36.40;33.50
10300;DHT22;5195;48.562;9.192;2023-06-22T11:50:59;36.40;33.80
10300;DHT22;5195;48.562;9.192;2023-06-22T11:53:35;36.60;33.50
10300;DHT22;5195;48.562;9.192;2023-06-22T11:56:11;36.50;33.90
10300;DHT22;5195;48.562;9.192;2023-06-22T11:58:46;36.30;34.10
10300;DHT22;5195;48.562;9.192;2023-06-22T12:01:22;36.50;33.60
10300;DHT22;5195;48.562;9.192;2023-06-22T12:03:57;36.80;33.00
10300;DHT22;5195;48.562;9.192;2023-06-22T12:06:33;37.10;33.20
10300;DHT22;5195;48.562;9.192;2023-06-22T12:09:09;37.50;33.00
10300;DHT22;5195;48.562;9.192;2023-06-22T12:11:45;37.40;33.60
10300;DHT22;5195;48.562;9.192;2023-06-22T12:14:21;37.10;33.20
10300;DHT22;5195;48.562;9.192;2023-06-22T12:16:56;37.10;34.20
10300;DHT22;5195;48.562;9.192;2023-06-22T12:19:33;36.50;34.60
10300;DHT22;5195;48.562;9.192;2023-06-22T12:22:08;36.50;34.50
10300;DHT22;5195;48.562;9.192;2023-06-22T12:24:44;36.20;35.00
10300;DHT22;5195;48.562;9.192;2023-06-22T12:27:20;35.90;36.30
10300;DHT22;5195;48.562;9.192;2023-06-22T12:29:56;35.80;36.90
10300;DHT22;5195;48.562;9.192;2023-06-22T12:32:31;35.70;36.20
10300;DHT22;5195;48.562;9.192;2023-06-22T12:35:08;35.50;37.20
10300;DHT22;5195;48.562;9.192;2023-06-22T12:37:43;35.50;37.20
10300;DHT22;5195;48.562;9.192;2023-06-22T12:40:19;35.60;37.30
10300;DHT22;5195;48.562;9.192;2023-06-22T12:42:54;35.40;37.40
10300;DHT22;5195;48.562;9.192;2023-06-22T12:45:30;35.10;37.80
10300;DHT22;5195;48.562;9.192;2023-06-22T12:48:06;34.80;38.10
10300;DHT22;5195;48.562;9.192;2023-06-22T12:50:41;34.70;38.30
10300;DHT22;5195;48.562;9.192;2023-06-22T12:53:17;34.50;38.50
10300;DHT22;5195;48.562;9.192;2023-06-22T12:55:52;34.30;38.60
10300;DHT22;5195;48.562;9.192;2023-06-22T12:58:28;34.50;38.70
10300;DHT22;5195;48.562;9.192;2023-06-22T13:01:04;34.90;38.60
10300;DHT22;5195;48.562;9.192;2023-06-22T13:03:39;34.80;38.60
10300;DHT22;5195;48.562;9.192;2023-06-22T13:06:15;34.90;38.40
10300;DHT22;5195;48.562;9.192;2023-06-22T13:08:50;34.80;38.20
10300;DHT22;5195;48.562;9.192;2023-06-22T13:11:26;34.90;38.40
10300;DHT22;5195;48.562;9.192;2023-06-22T13:14:01;35.20;38.40
10300;DHT22;5195;48.562;9.192;2023-06-22T13:16:38;35.70;37.60
10300;DHT22;5195;48.562;9.192;2023-06-22T13:19:13;35.60;37.50
10300;DHT22;5195;48.562;9.192;2023-06-22T13:21:49;35.70;37.50
10300;DHT22;5195;48.562;9.192;2023-06-22T13:24:24;35.40;37.70
10300;DHT22;5195;48.562;9.192;2023-06-22T13:27:00;35.30;37.70
10300;DHT22;5195;48.562;9.192;2023-06-22T13:29:36;35.40;36.70
10300;DHT22;5195;48.562;9.192;2023-06-22T13:32:13;35.30;37.30
10300;DHT22;5195;48.562;9.192;2023-06-22T13:34:50;35.20;37.80
10300;DHT22;5195;48.562;9.192;2023-06-22T13:37:26;35.10;37.70
10300;DHT22;5195;48.562;9.192;2023-06-22T13:40:01;35.30;38.10
10300;DHT22;5195;48.562;9.192;2023-06-22T13:42:36;35.30;37.70
10300;DHT22;5195;48.562;9.192;2023-06-22T13:45:12;35.50;37.70
10300;DHT22;5195;48.562;9.192;2023-06-22T13:47:50;35.50;37.40
10300;DHT22;5195;48.562;9.192;2023-06-22T13:50:26;35.30;37.60
10300;DHT22;5195;48.562;9.192;2023-06-22T13:53:02;35.10;38.30
10300;DHT22;5195;48.562;9.192;2023-06-22T13:55:38;35.00;38.50
10300;DHT22;5195;48.562;9.192;2023-06-22T13:58:15;35.10;38.50
10300;DHT22;5195;48.562;9.192;2023-06-22T14:00:50;35.50;37.40
10300;DHT22;5195;48.562;9.192;2023-06-22T14:03:26;35.80;36.90
10300;DHT22;5195;48.562;9.192;2023-06-22T14:06:02;35.30;37.40
10300;DHT22;5195;48.562;9.192;2023-06-22T14:08:39;35.30;37.40
10300;DHT22;5195;48.562;9.192;2023-06-22T14:11:14;35.10;37.70
10300;DHT22;5195;48.562;9.192;2023-06-22T14:13:50;35.20;37.90
10300;DHT22;5195;48.562;9.192;2023-06-22T14:16:26;35.40;37.90
10300;DHT22;5195;48.562;9.192;2023-06-22T14:19:01;35.60;37.10
10300;DHT22;5195;48.562;9.192;2023-06-22T14:21:37;35.70;37.00
10300;DHT22;5195;48.562;9.192;2023-06-22T14:24:12;35.80;37.20
10300;DHT22;5195;48.562;9.192;2023-06-22T14:26:48;36.00;37.80
10300;DHT22;5195;48.562;9.192;2023-06-22T14:29:24;35.70;37.80
10300;DHT22;5195;48.562;9.192;2023-06-22T14:31:59;35.50;38.00
10300;DHT22;5195;48.562;9.192;2023-06-22T14:34:35;35.60;37.50
10300;DHT22;5195;48.562;9.192;2023-06-22T14:37:10;35.60;37.60
10300;DHT22;5195;48.562;9.192;2023-06-22T14:39:46;35.30;38.10
10300;DHT22;5195;48.562;9.192;2023-06-22T14:42:21;35.10;38.60
10300;DHT22;5195;48.562;9.192;2023-06-22T14:44:57;35.30;38.60
10300;DHT22;5195;48.562;9.192;2023-06-22T14:47:33;35.60;38.50
10300;DHT22;5195;48.562;9.192;2023-06-22T14:50:08;35.80;38.00
10300;DHT22;5195;48.562;9.192;2023-06-22T14:52:44;35.70;38.00
10300;DHT22;5195;48.562;9.192;2023-06-22T14:55:20;35.40;38.50
10300;DHT22;5195;48.562;9.192;2023-06-22T14:57:56;35.10;38.80
10300;DHT22;5195;48.562;9.192;2023-06-22T15:00:31;35.30;38.70
10300;DHT22;5195;48.562;9.192;2023-06-22T15:03:07;35.20;38.50
10300;DHT22;5195;48.562;9.192;2023-06-22T15:05:42;34.90;38.20
10300;DHT22;5195;48.562;9.192;2023-06-22T15:08:18;35.00;37.00
10300;DHT22;5195;48.562;9.192;2023-06-22T15:10:53;35.00;37.40
10300;DHT22;5195;48.562;9.192;2023-06-22T15:13:35;34.90;37.90
10300;DHT22;5195;48.562;9.192;2023-06-22T15:16:04;34.70;38.10
10300;DHT22;5195;48.562;9.192;2023-06-22T15:18:40;34.70;37.50
10300;DHT22;5195;48.562;9.192;2023-06-22T15:21:16;34.70;34.10
10300;DHT22;5195;48.562;9.192;2023-06-22T15:23:52;34.70;33.40
10300;DHT22;5195;48.562;9.192;2023-06-22T15:26:28;34.80;32.60
10300;DHT22;5195;48.562;9.192;2023-06-22T15:29:04;34.80;32.50
10300;DHT22;5195;48.562;9.192;2023-06-22T15:31:39;34.50;32.60
10300;DHT22;5195;48.562;9.192;2023-06-22T15:34:16;34.70;30.00
10300;DHT22;5195;48.562;9.192;2023-06-22T15:36:51;34.70;30.00
10300;DHT22;5195;48.562;9.192;2023-06-22T15:39:27;34.80;30.00
10300;DHT22;5195;48.562;9.192;2023-06-22T15:42:02;34.80;29.60
10300;DHT22;5195;48.562;9.192;2023-06-22T15:44:38;34.90;29.30
10300;DHT22;5195;48.562;9.192;2023-06-22T15:47:14;34.90;29.10
10300;DHT22;5195;48.562;9.192;2023-06-22T15:49:49;34.90;28.50
10300;DHT22;5195;48.562;9.192;2023-06-22T15:52:25;34.90;28.30
10300;DHT22;5195;48.562;9.192;2023-06-22T15:55:01;34.60;28.80
10300;DHT22;5195;48.562;9.192;2023-06-22T15:57:37;34.10;28.70
10300;DHT22;5195;48.562;9.192;2023-06-22T16:00:13;34.10;28.70
10300;DHT22;5195;48.562;9.192;2023-06-22T16:02:48;33.90;29.10
10300;DHT22;5195;48.562;9.192;2023-06-22T16:05:24;33.60;29.70
10300;DHT22;5195;48.562;9.192;2023-06-22T16:07:59;33.30;29.90
10300;DHT22;5195;48.562;9.192;2023-06-22T16:10:35;33.40;29.50
10300;DHT22;5195;48.562;9.192;2023-06-22T16:13:11;33.60;29.50
10300;DHT22;5195;48.562;9.192;2023-06-22T16:15:48;33.70;29.00
10300;DHT22;5195;48.562;9.192;2023-06-22T16:18:25;33.70;29.30
10300;DHT22;5195;48.562;9.192;2023-06-22T16:21:01;33.00;30.10
10300;DHT22;5195;48.562;9.192;2023-06-22T16:23:37;33.00;30.10
10300;DHT22;5195;48.562;9.192;2023-06-22T16:26:14;32.70;30.80
10300;DHT22;5195;48.562;9.192;2023-06-22T16:28:49;32.40;31.70
10300;DHT22;5195;48.562;9.192;2023-06-22T16:31:25;32.40;33.00
10300;DHT22;5195;48.562;9.192;2023-06-22T16:34:01;32.60;33.60
10300;DHT22;5195;48.562;9.192;2023-06-22T16:36:36;32.40;33.90
10300;DHT22;5195;48.562;9.192;2023-06-22T16:39:13;32.30;33.30
10300;DHT22;5195;48.562;9.192;2023-06-22T16:41:49;32.50;33.20
10300;DHT22;5195;48.562;9.192;2023-06-22T16:44:25;32.30;33.40
10300;DHT22;5195;48.562;9.192;2023-06-22T16:47:00;32.00;33.70
10300;DHT22;5195;48.562;9.192;2023-06-22T16:49:36;32.10;33.80
10300;DHT22;5195;48.562;9.192;2023-06-22T16:52:12;32.40;33.70